createdAt,value
2024-04-18T00:01:21.090Z,0.73
2024-04-18T00:03:48.190Z,0.79
2024-04-18T00:06:14.703Z,0.85
2024-04-18T00:08:41.680Z,0.89
2024-04-18T00:11:37.577Z,0.96
2024-04-18T00:14:11.607Z,1.01
2024-04-18T00:16:38.134Z,1.06
2024-04-18T00:19:17.693Z,1.13
2024-04-18T00:21:58.011Z,1.20
2024-04-18T00:24:30.765Z,1.25
2024-04-18T00:26:57.528Z,1.25
2024-04-18T00:29:37.311Z,1.21
2024-04-18T00:32:13.767Z,1.19
2024-04-18T00:35:00.444Z,1.17
2024-04-18T00:37:36.470Z,1.16
2024-04-18T00:40:03.398Z,1.17
2024-04-18T00:42:37.034Z,1.20
2024-04-18T00:45:07.285Z,1.21
2024-04-18T00:47:48.676Z,1.19
2024-04-18T00:50:17.108Z,1.13
2024-04-18T00:52:45.658Z,1.05
2024-04-18T00:55:29.245Z,0.98
2024-04-18T00:58:12.075Z,0.93
2024-04-18T01:00:42.755Z,0.89
2024-04-18T01:03:29.018Z,0.86
2024-04-18T01:06:08.788Z,0.82
2024-04-18T01:08:54.877Z,0.81
2024-04-18T01:11:31.698Z,0.81
2024-04-18T01:14:06.391Z,0.79
2024-04-18T01:16:52.891Z,0.73
2024-04-18T01:19:20.350Z,0.69
2024-04-18T01:21:47.356Z,0.64
2024-04-18T01:24:15.238Z,0.63
2024-04-18T01:26:42.243Z,0.63
2024-04-18T01:29:08.838Z,0.61
2024-04-18T01:31:35.480Z,0.57
2024-04-18T01:34:04.563Z,0.54
2024-04-18T01:36:31.192Z,0.49
2024-04-18T01:39:17.822Z,0.47
2024-04-18T01:41:44.496Z,0.47
2024-04-18T01:44:30.965Z,0.45
2024-04-18T01:47:27.061Z,0.44
2024-04-18T01:50:09.713Z,0.44
2024-04-18T01:52:38.595Z,0.44
2024-04-18T01:55:08.719Z,0.42
2024-04-18T01:57:37.141Z,0.38
2024-04-18T02:00:22.637Z,0.35
2024-04-18T02:02:49.246Z,0.34
2024-04-18T02:05:34.427Z,0.31
2024-04-18T02:08:16.539Z,0.29
2024-04-18T02:10:46.008Z,0.26
2024-04-18T02:13:33.548Z,0.25
2024-04-18T02:16:00.038Z,0.24
2024-04-18T02:18:26.602Z,0.25
2024-04-18T02:21:12.547Z,0.26
2024-04-18T02:23:51.606Z,0.25
2024-04-18T02:26:18.265Z,0.23
2024-04-18T02:28:44.971Z,0.22
2024-04-18T02:31:17.236Z,0.21
2024-04-18T02:33:49.831Z,0.19
2024-04-18T02:36:16.469Z,0.17
2024-04-18T02:38:42.930Z,0.14
2024-04-18T02:41:09.418Z,0.11
2024-04-18T02:43:52.715Z,0.08
2024-04-18T02:46:19.879Z,0.07
2024-04-18T02:49:05.017Z,0.05
2024-04-18T02:51:32.111Z,0.02
2024-04-18T02:54:14.084Z,0.00
2024-04-18T02:56:41.718Z,-0.01
2024-04-18T02:59:10.786Z,-0.03
2024-04-18T03:01:50.395Z,-0.07
2024-04-18T03:04:17.263Z,-0.09
2024-04-18T03:06:47.347Z,-0.07
2024-04-18T03:09:15.463Z,-0.07
2024-04-18T03:11:54.735Z,-0.05
2024-04-18T03:14:40.932Z,0.01
2024-04-18T03:17:08.448Z,0.03
2024-04-18T03:19:53.687Z,0.04
2024-04-18T03:22:26.962Z,0.02
2024-04-18T03:25:01.130Z,0.03
2024-04-18T03:27:30.656Z,0.08
2024-04-18T03:29:57.567Z,0.13
2024-04-18T03:32:36.843Z,0.17
2024-04-18T03:35:04.672Z,0.22
2024-04-18T03:37:31.205Z,0.27
2024-04-18T03:39:57.761Z,0.32
2024-04-18T03:42:24.289Z,0.36
2024-04-18T03:44:56.772Z,0.40
2024-04-18T03:47:24.070Z,0.42
2024-04-18T03:50:08.947Z,0.40
2024-04-18T03:52:39.684Z,0.41
2024-04-18T03:55:06.385Z,0.42
2024-04-18T03:57:49.513Z,0.45
2024-04-18T04:00:16.333Z,0.47
2024-04-18T04:02:42.978Z,0.50
2024-04-18T04:05:09.479Z,0.53
2024-04-18T04:07:36.095Z,0.57
2024-04-18T04:10:02.721Z,0.63
2024-04-18T04:12:29.440Z,0.68
2024-04-18T05:37:54.044Z,3.04
2024-04-18T06:38:48.479Z,4.67
2024-04-18T06:41:14.937Z,4.65
2024-04-18T06:43:41.727Z,4.60
2024-04-18T06:46:08.582Z,4.56
2024-04-18T06:48:35.087Z,4.53
2024-04-18T06:51:01.571Z,4.58
2024-04-18T06:53:28.227Z,4.64
2024-04-18T06:55:54.745Z,4.70
2024-04-18T06:58:21.244Z,4.80
2024-04-18T07:00:47.869Z,4.96
2024-04-18T07:03:14.572Z,5.11
2024-04-18T07:05:51.476Z,5.21
2024-04-18T07:08:21.350Z,5.30
2024-04-18T07:10:48.168Z,5.39
2024-04-18T07:13:28.167Z,5.44
2024-04-18T07:15:59.121Z,5.50
2024-04-18T07:18:44.787Z,5.53
2024-04-18T07:21:11.671Z,5.55
2024-04-18T07:23:38.234Z,5.55
2024-04-18T07:26:05.454Z,5.56
2024-04-18T07:28:32.257Z,5.65
2024-04-18T07:30:58.803Z,5.80
2024-04-18T07:33:25.841Z,5.95
2024-04-18T07:35:56.642Z,6.09
2024-04-18T07:38:28.903Z,6.18
2024-04-18T07:40:55.554Z,6.39
2024-04-18T07:43:22.070Z,6.59
2024-04-18T07:45:48.889Z,6.75
2024-04-18T07:48:15.549Z,6.89
2024-04-18T07:50:42.413Z,7.01
2024-04-18T07:53:10.444Z,7.14
2024-04-18T07:55:38.245Z,7.25
2024-04-18T07:58:06.001Z,7.31
2024-04-18T08:00:35.581Z,7.43
2024-04-18T08:03:05.803Z,7.57
2024-04-18T08:05:36.036Z,7.74
2024-04-18T08:08:07.789Z,7.86
2024-04-18T08:10:45.959Z,7.87
2024-04-18T08:13:26.891Z,7.91
2024-04-18T08:18:24.559Z,8.02
2024-04-18T08:20:51.347Z,8.02
2024-04-18T08:23:19.989Z,8.09
2024-04-18T08:25:47.943Z,8.11
2024-04-18T08:28:14.761Z,8.13
2024-04-18T08:30:41.679Z,8.10
2024-04-18T08:33:08.653Z,8.04
2024-04-18T08:35:35.408Z,7.93
2024-04-18T08:38:02.298Z,7.94
2024-04-18T08:40:29.154Z,7.94
2024-04-18T08:42:55.778Z,7.96
2024-04-18T08:45:26.125Z,8.08
2024-04-18T08:47:55.057Z,8.30
2024-04-18T08:50:23.474Z,8.62
2024-04-18T08:52:52.552Z,8.54
2024-04-18T08:55:19.067Z,8.60
2024-04-18T08:57:52.799Z,8.76
2024-04-18T09:00:26.613Z,9.01
2024-04-18T09:02:53.524Z,9.35
2024-04-18T09:05:20.145Z,9.54
2024-04-18T09:07:46.947Z,9.49
2024-04-18T09:10:14.325Z,9.69
2024-04-18T09:12:40.951Z,9.94
2024-04-18T09:15:07.839Z,10.11
2024-04-18T09:17:34.851Z,10.29
2024-04-18T09:20:01.575Z,10.49
2024-04-18T09:22:28.150Z,10.52
2024-04-18T09:24:54.983Z,10.42
2024-04-18T09:27:21.457Z,10.38
2024-04-18T09:29:48.169Z,10.28
2024-04-18T09:32:15.296Z,10.11
2024-04-18T09:34:43.709Z,9.94
2024-04-18T09:37:12.546Z,9.83
2024-04-18T09:39:43.465Z,9.78
2024-04-18T09:42:19.802Z,10.10
2024-04-18T09:44:53.786Z,10.71
2024-04-18T09:47:24.124Z,11.30
2024-04-18T09:49:54.066Z,11.93
2024-04-18T09:52:22.138Z,11.85
2024-04-18T09:54:50.693Z,11.43
2024-04-18T09:57:17.592Z,11.01
2024-04-18T09:59:46.082Z,10.58
2024-04-18T10:02:13.636Z,10.13
2024-04-18T10:04:41.601Z,9.79
2024-04-18T10:07:11.500Z,9.66
2024-04-18T10:09:40.024Z,9.62
2024-04-18T10:12:09.320Z,9.44
2024-04-18T10:14:39.085Z,9.27
2024-04-18T10:17:06.134Z,9.05
2024-04-18T10:19:32.856Z,8.89
2024-04-18T10:22:11.624Z,8.74
2024-04-18T10:24:51.539Z,8.76
2024-04-18T10:27:18.354Z,9.04
2024-04-18T10:29:57.735Z,9.44
2024-04-18T10:32:29.812Z,9.90
2024-04-18T10:34:59.418Z,10.60
2024-04-18T10:37:25.891Z,11.55
2024-04-18T10:39:53.437Z,12.58
2024-04-18T10:42:21.028Z,13.34
2024-04-18T10:44:48.571Z,13.71
2024-04-18T10:47:19.191Z,13.66
2024-04-18T10:49:46.141Z,13.74
2024-04-18T10:52:17.254Z,14.19
2024-04-18T10:54:45.016Z,14.16
2024-04-18T10:57:12.494Z,13.57
2024-04-18T10:59:39.777Z,12.90
2024-04-18T11:02:08.088Z,12.22
2024-04-18T11:04:35.304Z,11.64
2024-04-18T11:07:02.570Z,11.18
2024-04-18T11:09:29.369Z,10.73
2024-04-18T11:11:56.335Z,10.51
2024-04-18T11:14:23.158Z,10.24
2024-04-18T11:16:57.554Z,9.89
2024-04-18T11:19:25.398Z,9.52
2024-04-18T11:21:52.691Z,9.18
2024-04-18T11:24:28.290Z,8.91
2024-04-18T11:26:55.001Z,8.67
2024-04-18T11:29:26.319Z,8.51
2024-04-18T11:31:53.325Z,8.37
2024-04-18T11:34:19.935Z,8.27
2024-04-18T11:36:47.582Z,8.14
2024-04-18T11:39:14.357Z,8.02
2024-04-18T11:41:41.215Z,7.89
2024-04-18T11:44:08.358Z,7.76
2024-04-18T11:46:35.175Z,7.67
2024-04-18T11:49:01.814Z,7.70
2024-04-18T11:51:28.719Z,7.76
2024-04-18T11:53:55.359Z,7.87
2024-04-18T11:56:34.268Z,8.00
2024-04-18T11:59:00.999Z,8.14
2024-04-18T12:01:33.839Z,8.37
2024-04-18T12:04:18.893Z,8.74
2024-04-18T12:06:45.938Z,9.07
2024-04-18T12:09:27.283Z,9.27
2024-04-18T12:11:58.312Z,9.24
2024-04-18T12:14:24.830Z,9.12
2024-04-18T12:16:56.368Z,9.09
2024-04-18T12:19:52.259Z,9.12
2024-04-18T12:22:36.742Z,9.06
2024-04-18T12:25:16.999Z,9.07
2024-04-18T12:27:44.202Z,9.10
2024-04-18T12:30:30.716Z,9.23
2024-04-18T12:33:16.590Z,9.40
2024-04-18T12:35:44.519Z,9.55
2024-04-18T12:38:11.352Z,9.70
2024-04-18T12:40:45.001Z,9.94
2024-04-18T12:43:12.495Z,9.99
2024-04-18T12:46:06.151Z,10.01
2024-04-18T12:48:50.967Z,10.08
2024-04-18T12:51:18.454Z,10.28
2024-04-18T12:53:45.288Z,10.82
2024-04-18T12:56:12.247Z,11.55
2024-04-18T12:58:42.782Z,12.66
2024-04-18T13:01:10.647Z,13.86
2024-04-18T13:03:41.148Z,15.38
2024-04-18T13:06:27.460Z,16.59
2024-04-18T13:08:55.918Z,18.86
2024-04-18T13:11:41.048Z,20.18
2024-04-18T13:14:08.486Z,22.01
2024-04-18T13:16:35.629Z,21.60
2024-04-18T13:19:10.135Z,20.32
2024-04-18T13:21:37.232Z,18.74
2024-04-18T13:24:04.166Z,17.23
2024-04-18T13:26:51.619Z,15.70
2024-04-18T13:29:19.430Z,14.57
2024-04-18T13:31:47.247Z,13.44
2024-04-18T13:34:20.435Z,12.31
2024-04-18T13:36:47.553Z,11.26
2024-04-18T13:39:14.791Z,10.30
2024-04-18T13:41:41.597Z,9.51
2024-04-18T13:44:17.793Z,8.83
2024-04-18T13:46:45.353Z,8.34
2024-04-18T13:49:33.027Z,7.96
2024-04-18T13:52:00.134Z,7.77
2024-04-18T13:54:33.793Z,7.60
2024-04-18T13:57:01.065Z,7.44
2024-04-18T13:59:41.166Z,7.37
2024-04-18T14:02:27.477Z,7.35
2024-04-18T14:05:22.351Z,7.42
2024-04-18T14:08:04.577Z,7.56
2024-04-18T14:10:31.433Z,7.75
2024-04-18T14:13:16.633Z,8.35
2024-04-18T14:15:52.347Z,9.44
2024-04-18T14:18:38.280Z,10.54
2024-04-18T14:21:05.287Z,10.88
2024-04-18T14:23:31.782Z,10.90
2024-04-18T14:26:00.030Z,10.68
2024-04-18T14:28:31.725Z,10.54
2024-04-18T14:31:18.554Z,10.79
2024-04-18T14:33:48.026Z,11.06
2024-04-18T14:36:14.974Z,11.34
2024-04-18T14:38:41.674Z,12.46
2024-04-18T14:41:12.162Z,15.70
2024-04-18T14:43:39.454Z,18.45
2024-04-18T14:46:06.456Z,19.54
2024-04-18T14:48:45.587Z,20.33
2024-04-18T14:51:22.659Z,18.72
2024-04-18T14:53:49.444Z,16.97
2024-04-18T14:56:16.595Z,15.27
2024-04-18T14:59:01.422Z,13.98
2024-04-18T15:01:28.703Z,13.49
2024-04-18T15:03:55.341Z,12.94
2024-04-18T15:06:22.269Z,12.35
2024-04-18T15:09:18.254Z,11.69
2024-04-18T15:11:57.223Z,11.27
2024-04-18T15:14:37.085Z,11.97
2024-04-18T15:17:08.184Z,11.90
2024-04-18T15:19:35.724Z,11.39
2024-04-18T15:22:21.431Z,10.76
2024-04-18T15:24:48.056Z,10.22
2024-04-18T15:27:14.868Z,9.78
2024-04-18T15:29:41.796Z,9.41
2024-04-18T15:32:21.650Z,9.27
2024-04-18T15:34:49.225Z,10.71
2024-04-18T15:37:35.081Z,12.37
2024-04-18T15:40:02.199Z,13.55
2024-04-18T15:42:28.813Z,14.33
2024-04-18T15:44:55.329Z,14.32
2024-04-18T15:47:33.011Z,13.57
2024-04-18T15:50:17.976Z,12.25
2024-04-18T15:52:45.539Z,11.17
2024-04-18T15:55:30.171Z,10.07
2024-04-18T15:58:17.610Z,9.06
2024-04-18T16:00:44.298Z,8.36
2024-04-18T16:03:31.783Z,7.85
2024-04-18T16:06:19.877Z,7.41
2024-04-18T16:09:06.680Z,7.05
2024-04-18T16:11:39.592Z,6.84
2024-04-18T16:14:06.127Z,6.72
2024-04-18T16:16:32.696Z,6.60
2024-04-18T16:19:08.365Z,6.54
2024-04-18T16:21:35.045Z,6.51
2024-04-18T16:24:15.259Z,6.50
2024-04-18T16:26:41.940Z,6.48
2024-04-18T16:29:08.464Z,6.46
2024-04-18T16:31:40.850Z,6.44
2024-04-18T16:34:16.788Z,6.45
2024-04-18T16:36:44.922Z,6.45
2024-04-18T16:39:14.109Z,6.56
2024-04-18T16:41:41.331Z,7.27
2024-04-18T16:44:08.091Z,7.85
2024-04-18T16:46:34.573Z,7.97
2024-04-18T16:49:01.256Z,8.13
2024-04-18T16:51:27.939Z,8.14
2024-04-18T16:53:55.971Z,8.23
2024-04-18T16:56:22.899Z,8.39
2024-04-18T16:58:53.365Z,8.27
2024-04-18T17:01:20.629Z,8.15
2024-04-18T17:03:47.528Z,7.98
2024-04-18T17:06:41.863Z,7.80
2024-04-18T17:09:16.239Z,7.59
2024-04-18T17:11:43.075Z,7.34
2024-04-18T17:14:28.702Z,7.06
2024-04-18T17:16:55.142Z,6.82
2024-04-18T17:19:21.878Z,6.57
2024-04-18T17:21:49.147Z,6.36
2024-04-18T17:24:15.688Z,6.18
2024-04-18T17:27:01.334Z,5.97
2024-04-18T17:29:28.233Z,5.78
2024-04-18T17:31:54.917Z,5.61
2024-04-18T17:34:21.881Z,5.46
2024-04-18T17:36:48.551Z,5.31
2024-04-18T17:39:35.935Z,5.18
2024-04-18T17:42:03.014Z,5.07
2024-04-18T17:44:50.062Z,4.93
2024-04-18T17:47:27.665Z,4.84
2024-04-18T17:49:54.627Z,4.76
2024-04-18T17:52:24.470Z,4.70
2024-04-18T17:54:51.098Z,4.66
2024-04-18T17:57:17.596Z,4.63
2024-04-18T18:00:05.756Z,4.60
2024-04-18T18:02:38.949Z,4.56
2024-04-18T18:05:05.546Z,4.54
2024-04-18T18:07:32.119Z,4.49
2024-04-18T18:09:58.767Z,4.47
2024-04-18T18:12:25.428Z,4.46
2024-04-18T18:14:52.039Z,4.45
2024-04-18T18:17:18.615Z,4.44
2024-04-18T18:19:45.324Z,4.42
2024-04-18T18:22:11.957Z,4.37
2024-04-18T18:24:38.851Z,4.24
2024-04-18T18:27:05.514Z,4.07
2024-04-18T18:29:32.447Z,3.83
2024-04-18T18:32:08.385Z,3.58
2024-04-18T18:34:35.412Z,3.21
2024-04-18T18:37:01.973Z,2.88
2024-04-18T18:39:28.640Z,2.60
2024-04-18T18:41:55.326Z,2.39
2024-04-18T18:44:22.118Z,2.20
2024-04-18T18:46:49.362Z,2.03
2024-04-18T18:49:16.294Z,1.91
2024-04-18T18:51:43.359Z,1.82
2024-04-18T18:54:10.832Z,1.77
2024-04-18T18:56:37.490Z,1.76
2024-04-18T18:59:22.770Z,1.79
2024-04-18T19:01:49.296Z,1.83
2024-04-18T19:04:22.652Z,1.89
2024-04-18T19:06:52.346Z,1.94
2024-04-18T19:09:19.760Z,2.02
2024-04-18T19:11:46.586Z,2.09
2024-04-18T19:14:13.957Z,2.14
2024-04-18T19:17:03.917Z,2.18
2024-04-18T19:19:31.122Z,2.20
2024-04-18T19:21:57.739Z,2.19
2024-04-18T19:24:27.133Z,2.19
2024-04-18T19:26:57.978Z,2.18
2024-04-18T19:29:32.113Z,2.16
2024-04-18T19:32:06.703Z,2.12
2024-04-18T19:34:33.320Z,2.06
2024-04-18T19:37:00.187Z,2.04
2024-04-18T19:39:27.200Z,2.01
2024-04-18T19:41:56.981Z,1.98
2024-04-18T19:44:23.552Z,1.93
2024-04-18T19:46:51.380Z,1.90
2024-04-18T19:49:18.090Z,1.88
2024-04-18T19:51:56.361Z,1.86
2024-04-18T19:54:22.948Z,1.83
2024-04-18T19:56:49.810Z,1.81
2024-04-18T19:59:16.634Z,1.81
2024-04-18T20:01:43.160Z,1.79
2024-04-18T20:04:10.026Z,1.78
2024-04-18T20:06:36.757Z,1.78
2024-04-18T20:09:03.412Z,1.76
2024-04-18T20:11:30.114Z,1.75
2024-04-18T20:13:57.106Z,1.74
2024-04-18T20:16:23.646Z,1.75
2024-04-18T20:19:14.403Z,1.74
2024-04-18T20:21:43.133Z,1.75
2024-04-18T20:24:11.041Z,1.76
2024-04-18T20:26:57.966Z,1.75
2024-04-18T20:29:43.472Z,1.74
2024-04-18T20:32:23.156Z,1.73
2024-04-18T20:34:51.522Z,1.73
2024-04-18T20:37:18.205Z,1.74
2024-04-18T20:39:45.733Z,1.73
2024-04-18T20:42:13.203Z,1.73
2024-04-18T20:44:59.506Z,1.74
2024-04-18T20:47:26.433Z,1.74
2024-04-18T20:49:52.978Z,1.72
2024-04-18T20:52:19.700Z,1.72
2024-04-18T20:54:52.096Z,1.72
2024-04-18T20:57:18.787Z,1.72
2024-04-18T20:59:45.525Z,1.71
2024-04-18T21:02:12.033Z,1.67
2024-04-18T21:04:38.564Z,1.61
2024-04-18T21:07:05.101Z,1.57
2024-04-18T21:09:31.793Z,1.53
2024-04-18T21:11:58.311Z,1.49
2024-04-18T21:14:24.958Z,1.46
2024-04-18T21:16:51.505Z,1.44
2024-04-18T21:19:21.474Z,1.42
2024-04-18T21:21:48.628Z,1.40
2024-04-18T21:24:15.147Z,1.39
2024-04-18T21:26:48.234Z,1.37
2024-04-18T21:29:15.482Z,1.34
2024-04-18T21:31:42.076Z,1.33
2024-04-18T21:34:10.832Z,1.31
2024-04-18T21:36:37.565Z,1.30
2024-04-18T21:39:04.434Z,1.29
2024-04-18T21:41:30.948Z,1.28
2024-04-18T21:43:57.574Z,1.26
2024-04-18T21:46:24.906Z,1.24
2024-04-18T21:48:51.526Z,1.22
2024-04-18T21:51:18.426Z,1.25
2024-04-18T21:53:45.048Z,1.27
2024-04-18T21:56:11.526Z,1.28
2024-04-18T21:58:38.130Z,1.29
2024-04-18T22:01:04.766Z,1.31
2024-04-18T22:03:31.532Z,1.30
2024-04-18T22:05:58.195Z,1.30
2024-04-18T22:08:25.052Z,1.28
2024-04-18T22:10:53.109Z,1.26
2024-04-18T22:13:19.626Z,1.23
2024-04-18T22:15:46.185Z,1.22
2024-04-18T22:18:13.013Z,1.22
2024-04-18T22:20:39.856Z,1.20
2024-04-18T22:23:15.126Z,1.19
2024-04-18T22:25:43.245Z,1.17
2024-04-18T22:28:09.833Z,1.14
2024-04-18T22:30:36.327Z,1.12
2024-04-18T22:33:03.425Z,1.10
2024-04-18T22:35:29.994Z,1.09
2024-04-18T22:37:56.472Z,1.09
2024-04-18T22:40:23.421Z,1.10
2024-04-18T22:42:49.976Z,1.12
2024-04-18T22:45:16.733Z,1.14
2024-04-18T22:47:43.352Z,1.16
2024-04-18T22:50:10.057Z,1.17
2024-04-18T22:52:36.509Z,1.18
2024-04-18T22:55:03.352Z,1.19
2024-04-18T22:57:30.098Z,1.22
2024-04-18T22:59:56.596Z,1.23
2024-04-18T23:02:23.464Z,1.24
2024-04-18T23:04:49.958Z,1.25
2024-04-18T23:07:16.448Z,1.26
2024-04-18T23:09:42.958Z,1.27
2024-04-18T23:12:09.504Z,1.28
2024-04-18T23:14:36.114Z,1.29
2024-04-18T23:17:02.808Z,1.29
2024-04-18T23:19:29.381Z,1.28
2024-04-18T23:21:55.882Z,1.26
2024-04-18T23:24:37.635Z,1.25
2024-04-18T23:27:04.686Z,1.26
2024-04-18T23:29:31.831Z,1.26
2024-04-18T23:31:58.714Z,1.27
2024-04-18T23:34:25.453Z,1.27
2024-04-18T23:37:01.278Z,1.29
2024-04-18T23:39:27.883Z,1.29
2024-04-18T23:41:54.642Z,1.30
2024-04-18T23:44:21.226Z,1.30
2024-04-18T23:46:47.811Z,1.30
2024-04-18T23:49:14.490Z,1.28
2024-04-18T23:51:41.739Z,1.27
2024-04-18T23:54:08.833Z,1.23
2024-04-18T23:56:35.317Z,1.19
2024-04-18T23:59:02.134Z,1.13
